Terminal Aerodrome Forecast
Issued by NWS Detroit/Pontiac, MI

Home | Current Version | Previous Version | Text Only | Print | Product List | Glossary On
Versions: 1 2 3 4 5 6 7 8 9 10 11 12 13 14 15
000
FTUS43 KDTX 311122
TAFFNT
TAF
KFNT 311122Z 3112/0112 22005KT 6SM -SHRA BR OVC025
     FM311300 28005KT 4SM -SHRA BR OVC015
     FM311600 33015KT 2SM SHRA BR OVC008
     FM311900 36020G30KT 4SM SHRA OVC008
     FM010000 36015G25KT 6SM -SHRASN OVC025=

USA.gov is the U.S. government's official web portal to all federal, state and local government web resources and services.